sensor_id;sensor_type;location;lat;lon;timestamp;pressure;altitude;pressure_sealevel;temperature;humidity
2178;BME280;1095;50.992;6.798;2023-03-01T00:02:26;102185.09;;;-1.15;84.54
2178;BME280;1095;50.992;6.798;2023-03-01T00:04:53;102191.22;;;-1.19;84.53
2178;BME280;1095;50.992;6.798;2023-03-01T00:07:21;102195.75;;;-1.28;85.06
2178;BME280;1095;50.992;6.798;2023-03-01T00:09:47;102201.41;;;-1.16;85.72
2178;BME280;1095;50.992;6.798;2023-03-01T00:12:14;102191.28;;;-1.22;85.53
2178;BME280;1095;50.992;6.798;2023-03-01T00:14:41;102206.88;;;-1.28;85.83
2178;BME280;1095;50.992;6.798;2023-03-01T00:17:08;102212.88;;;-1.29;86.42
2178;BME280;1095;50.992;6.798;2023-03-01T00:19:34;102212.97;;;-1.32;86.15
2178;BME280;1095;50.992;6.798;2023-03-01T00:22:01;102207.63;;;-1.24;86.17
2178;BME280;1095;50.992;6.798;2023-03-01T00:24:29;102207.84;;;-1.32;86.75
2178;BME280;1095;50.992;6.798;2023-03-01T00:26:56;102207.59;;;-1.23;86.37
2178;BME280;1095;50.992;6.798;2023-03-01T00:29:23;102203.56;;;-1.33;86.57
2178;BME280;1095;50.992;6.798;2023-03-01T00:31:50;102195.19;;;-1.40;86.68
2178;BME280;1095;50.992;6.798;2023-03-01T00:34:17;102198.91;;;-1.50;86.68
2178;BME280;1095;50.992;6.798;2023-03-01T00:36:43;102205.91;;;-1.55;87.08
2178;BME280;1095;50.992;6.798;2023-03-01T00:39:12;102205.00;;;-1.54;87.57
2178;BME280;1095;50.992;6.798;2023-03-01T00:41:40;102204.16;;;-1.54;87.55
2178;BME280;1095;50.992;6.798;2023-03-01T00:44:07;102202.66;;;-1.61;87.71
2178;BME280;1095;50.992;6.798;2023-03-01T00:46:34;102200.22;;;-1.68;88.18
2178;BME280;1095;50.992;6.798;2023-03-01T00:49:00;102202.78;;;-1.68;88.12
2178;BME280;1095;50.992;6.798;2023-03-01T00:51:28;102204.25;;;-1.57;88.05
2178;BME280;1095;50.992;6.798;2023-03-01T00:53:57;102194.88;;;-1.58;88.41
2178;BME280;1095;50.992;6.798;2023-03-01T00:56:23;102186.28;;;-1.57;88.47
2178;BME280;1095;50.992;6.798;2023-03-01T00:58:51;102184.75;;;-1.64;88.19
2178;BME280;1095;50.992;6.798;2023-03-01T01:01:20;102188.41;;;-1.73;88.59
2178;BME280;1095;50.992;6.798;2023-03-01T01:03:48;102198.97;;;-1.85;88.44
2178;BME280;1095;50.992;6.798;2023-03-01T01:06:17;102192.44;;;-1.97;88.79
2178;BME280;1095;50.992;6.798;2023-03-01T01:08:44;102183.94;;;-1.99;89.22
2178;BME280;1095;50.992;6.798;2023-03-01T01:11:11;102182.31;;;-2.03;89.52
2178;BME280;1095;50.992;6.798;2023-03-01T01:13:39;102185.78;;;-2.04;89.81
2178;BME280;1095;50.992;6.798;2023-03-01T01:16:08;102175.59;;;-2.07;90.51
2178;BME280;1095;50.992;6.798;2023-03-01T01:18:34;102174.56;;;-2.00;90.09
2178;BME280;1095;50.992;6.798;2023-03-01T01:21:06;102167.66;;;-1.98;90.15
2178;BME280;1095;50.992;6.798;2023-03-01T01:23:33;102159.13;;;-1.98;90.65
2178;BME280;1095;50.992;6.798;2023-03-01T01:26:04;102158.22;;;-1.96;90.03
2178;BME280;1095;50.992;6.798;2023-03-01T01:28:30;102153.00;;;-1.93;90.02
2178;BME280;1095;50.992;6.798;2023-03-01T01:30:57;102144.44;;;-1.92;90.05
2178;BME280;1095;50.992;6.798;2023-03-01T01:33:26;102143.66;;;-1.95;90.52
2178;BME280;1095;50.992;6.798;2023-03-01T01:35:53;102145.44;;;-1.97;89.69
2178;BME280;1095;50.992;6.798;2023-03-01T01:38:19;102140.28;;;-1.97;90.12
2178;BME280;1095;50.992;6.798;2023-03-01T01:40:47;102138.78;;;-2.06;90.32
2178;BME280;1095;50.992;6.798;2023-03-01T01:43:19;102131.34;;;-2.15;90.40
2178;BME280;1095;50.992;6.798;2023-03-01T01:45:46;102135.00;;;-2.25;90.77
2178;BME280;1095;50.992;6.798;2023-03-01T01:48:17;102129.38;;;-2.40;90.86
2178;BME280;1095;50.992;6.798;2023-03-01T01:50:53;102122.81;;;-2.51;90.94
2178;BME280;1095;50.992;6.798;2023-03-01T01:53:21;102123.88;;;-2.60;91.28
2178;BME280;1095;50.992;6.798;2023-03-01T01:55:51;102118.97;;;-2.69;91.40
2178;BME280;1095;50.992;6.798;2023-03-01T01:58:21;102114.75;;;-2.72;91.56
2178;BME280;1095;50.992;6.798;2023-03-01T02:00:48;102114.84;;;-2.76;91.60
2178;BME280;1095;50.992;6.798;2023-03-01T02:03:18;102112.53;;;-2.85;91.77
2178;BME280;1095;50.992;6.798;2023-03-01T02:05:51;102109.28;;;-2.93;92.14
2178;BME280;1095;50.992;6.798;2023-03-01T02:08:23;102103.38;;;-2.97;92.93
2178;BME280;1095;50.992;6.798;2023-03-01T02:10:52;102102.56;;;-2.99;92.99
2178;BME280;1095;50.992;6.798;2023-03-01T02:13:21;102104.34;;;-3.03;93.37
2178;BME280;1095;50.992;6.798;2023-03-01T02:15:48;102103.50;;;-3.03;93.41
2178;BME280;1095;50.992;6.798;2023-03-01T02:18:18;102097.56;;;-3.05;93.52
2178;BME280;1095;50.992;6.798;2023-03-01T02:21:01;102096.00;;;-3.11;93.97
2178;BME280;1095;50.992;6.798;2023-03-01T02:23:29;102102.84;;;-3.11;94.18
2178;BME280;1095;50.992;6.798;2023-03-01T02:26:01;102106.25;;;-3.12;94.03
2178;BME280;1095;50.992;6.798;2023-03-01T02:28:35;102097.88;;;-3.19;94.23
2178;BME280;1095;50.992;6.798;2023-03-01T02:31:05;102102.94;;;-3.16;94.55
2178;BME280;1095;50.992;6.798;2023-03-01T02:33:49;102110.38;;;-3.05;94.40
2178;BME280;1095;50.992;6.798;2023-03-01T02:36:20;102114.28;;;-2.87;94.46
2178;BME280;1095;50.992;6.798;2023-03-01T02:38:49;102115.69;;;-2.76;94.20
2178;BME280;1095;50.992;6.798;2023-03-01T02:41:19;102110.38;;;-2.68;94.25
2178;BME280;1095;50.992;6.798;2023-03-01T02:43:48;102113.72;;;-2.64;93.99
2178;BME280;1095;50.992;6.798;2023-03-01T02:46:17;102112.81;;;-2.62;93.76
2178;BME280;1095;50.992;6.798;2023-03-01T02:48:45;102106.75;;;-2.58;93.14
2178;BME280;1095;50.992;6.798;2023-03-01T02:51:25;102101.91;;;-2.70;92.93
2178;BME280;1095;50.992;6.798;2023-03-01T02:53:59;102104.31;;;-2.64;93.20
2178;BME280;1095;50.992;6.798;2023-03-01T02:56:32;102107.59;;;-2.57;93.21
2178;BME280;1095;50.992;6.798;2023-03-01T02:59:00;102106.75;;;-2.58;92.38
2178;BME280;1095;50.992;6.798;2023-03-01T03:01:28;102105.97;;;-2.61;92.05
2178;BME280;1095;50.992;6.798;2023-03-01T03:04:02;102103.78;;;-2.78;92.54
2178;BME280;1095;50.992;6.798;2023-03-01T03:06:29;102090.50;;;-2.94;92.37
2178;BME280;1095;50.992;6.798;2023-03-01T03:08:56;102083.13;;;-3.08;92.29
2178;BME280;1095;50.992;6.798;2023-03-01T03:11:23;102081.66;;;-3.19;92.40
2178;BME280;1095;50.992;6.798;2023-03-01T03:13:50;102077.44;;;-3.22;92.89
2178;BME280;1095;50.992;6.798;2023-03-01T03:16:18;102078.31;;;-3.23;93.45
2178;BME280;1095;50.992;6.798;2023-03-01T03:18:45;102070.78;;;-3.29;93.42
2178;BME280;1095;50.992;6.798;2023-03-01T03:21:13;102079.47;;;-3.36;93.61
2178;BME280;1095;50.992;6.798;2023-03-01T03:23:39;102077.56;;;-3.28;94.08
2178;BME280;1095;50.992;6.798;2023-03-01T03:26:06;102074.31;;;-3.33;94.26
2178;BME280;1095;50.992;6.798;2023-03-01T03:28:33;102083.84;;;-3.41;94.30
2178;BME280;1095;50.992;6.798;2023-03-01T03:31:06;102078.03;;;-3.49;94.57
2178;BME280;1095;50.992;6.798;2023-03-01T03:33:34;102079.72;;;-3.48;94.60
2178;BME280;1095;50.992;6.798;2023-03-01T03:36:01;102073.88;;;-3.55;95.20
2178;BME280;1095;50.992;6.798;2023-03-01T03:38:27;102074.03;;;-3.62;95.04
2178;BME280;1095;50.992;6.798;2023-03-01T03:41:00;102078.38;;;-3.66;95.24
2178;BME280;1095;50.992;6.798;2023-03-01T03:43:28;102080.91;;;-3.64;95.78
2178;BME280;1095;50.992;6.798;2023-03-01T03:45:54;102071.53;;;-3.65;95.75
2178;BME280;1095;50.992;6.798;2023-03-01T03:48:23;102067.41;;;-3.73;95.83
2178;BME280;1095;50.992;6.798;2023-03-01T03:50:53;102071.84;;;-3.79;96.04
2178;BME280;1095;50.992;6.798;2023-03-01T03:53:21;102070.97;;;-3.78;96.27
2178;BME280;1095;50.992;6.798;2023-03-01T03:55:48;102061.63;;;-3.81;96.27
2178;BME280;1095;50.992;6.798;2023-03-01T03:58:17;102060.84;;;-3.84;96.29
2178;BME280;1095;50.992;6.798;2023-03-01T04:00:45;102065.13;;;-3.85;96.62
2178;BME280;1095;50.992;6.798;2023-03-01T04:03:14;102060.06;;;-3.88;96.92
2178;BME280;1095;50.992;6.798;2023-03-01T04:05:42;102067.47;;;-3.76;96.65
2178;BME280;1095;50.992;6.798;2023-03-01T04:08:10;102054.84;;;-3.82;96.95
2178;BME280;1095;50.992;6.798;2023-03-01T04:10:39;102060.00;;;-3.85;96.85
2178;BME280;1095;50.992;6.798;2023-03-01T04:13:07;102041.38;;;-3.91;96.87
2178;BME280;1095;50.992;6.798;2023-03-01T04:15:36;102056.72;;;-3.91;97.38
2178;BME280;1095;50.992;6.798;2023-03-01T04:18:03;102051.56;;;-3.90;97.15
2178;BME280;1095;50.992;6.798;2023-03-01T04:20:32;102040.53;;;-3.92;97.15
2178;BME280;1095;50.992;6.798;2023-03-01T04:23:04;102037.19;;;-3.95;97.17
2178;BME280;1095;50.992;6.798;2023-03-01T04:25:39;102036.97;;;-3.83;97.17
2178;BME280;1095;50.992;6.798;2023-03-01T04:28:06;102041.88;;;-3.74;97.08
2178;BME280;1095;50.992;6.798;2023-03-01T04:30:33;102046.88;;;-3.70;97.31
2178;BME280;1095;50.992;6.798;2023-03-01T04:33:02;102033.22;;;-3.69;97.27
2178;BME280;1095;50.992;6.798;2023-03-01T04:35:29;102041.00;;;-3.73;97.09
2178;BME280;1095;50.992;6.798;2023-03-01T04:37:56;102043.72;;;-3.81;97.07
2178;BME280;1095;50.992;6.798;2023-03-01T04:40:22;102044.53;;;-3.79;97.34
2178;BME280;1095;50.992;6.798;2023-03-01T04:42:51;102046.06;;;-3.72;97.34
2178;BME280;1095;50.992;6.798;2023-03-01T04:45:20;102047.72;;;-3.68;97.62
2178;BME280;1095;50.992;6.798;2023-03-01T04:47:47;102047.75;;;-3.71;97.77
2178;BME280;1095;50.992;6.798;2023-03-01T04:50:16;102044.38;;;-3.73;97.46
2178;BME280;1095;50.992;6.798;2023-03-01T04:52:46;102042.84;;;-3.80;97.20
2178;BME280;1095;50.992;6.798;2023-03-01T04:55:13;102038.50;;;-3.76;97.71
2178;BME280;1095;50.992;6.798;2023-03-01T04:57:40;102027.53;;;-3.81;97.53
2178;BME280;1095;50.992;6.798;2023-03-01T05:00:11;102032.78;;;-3.87;97.45
2178;BME280;1095;50.992;6.798;2023-03-01T05:02:47;102025.31;;;-3.98;97.83
2178;BME280;1095;50.992;6.798;2023-03-01T05:05:19;102028.88;;;-4.07;97.50
2178;BME280;1095;50.992;6.798;2023-03-01T05:07:45;102034.06;;;-4.11;97.66
2178;BME280;1095;50.992;6.798;2023-03-01T05:10:12;102027.28;;;-4.12;97.87
2178;BME280;1095;50.992;6.798;2023-03-01T05:12:39;102024.78;;;-4.17;98.07
2178;BME280;1095;50.992;6.798;2023-03-01T05:15:08;102021.44;;;-4.19;98.36
2178;BME280;1095;50.992;6.798;2023-03-01T05:17:35;102031.66;;;-4.19;98.23
2178;BME280;1095;50.992;6.798;2023-03-01T05:20:02;102026.59;;;-4.22;98.20
2178;BME280;1095;50.992;6.798;2023-03-01T05:22:33;102034.31;;;-4.25;98.21
2178;BME280;1095;50.992;6.798;2023-03-01T05:24:59;102035.28;;;-4.29;98.37
2178;BME280;1095;50.992;6.798;2023-03-01T05:27:26;102024.25;;;-4.32;98.78
2178;BME280;1095;50.992;6.798;2023-03-01T05:29:53;102026.03;;;-4.38;98.56
2178;BME280;1095;50.992;6.798;2023-03-01T05:32:21;102033.75;;;-4.41;98.75
2178;BME280;1095;50.992;6.798;2023-03-01T05:34:47;102038.91;;;-4.42;98.95
2178;BME280;1095;50.992;6.798;2023-03-01T05:37:14;102041.47;;;-4.42;98.98
2178;BME280;1095;50.992;6.798;2023-03-01T05:39:41;102036.38;;;-4.44;99.10
2178;BME280;1095;50.992;6.798;2023-03-01T05:42:10;102034.66;;;-4.43;99.05
2178;BME280;1095;50.992;6.798;2023-03-01T05:44:37;102037.09;;;-4.36;99.51
2178;BME280;1095;50.992;6.798;2023-03-01T05:47:04;102024.28;;;-4.34;99.33
2178;BME280;1095;50.992;6.798;2023-03-01T05:49:32;102036.28;;;-4.39;99.33
2178;BME280;1095;50.992;6.798;2023-03-01T05:51:59;102028.75;;;-4.47;99.51
2178;BME280;1095;50.992;6.798;2023-03-01T05:54:26;102033.91;;;-4.48;99.45
2178;BME280;1095;50.992;6.798;2023-03-01T05:56:53;102032.19;;;-4.48;99.57
2178;BME280;1095;50.992;6.798;2023-03-01T05:59:19;102033.09;;;-4.52;99.74
2178;BME280;1095;50.992;6.798;2023-03-01T06:01:46;102033.91;;;-4.48;99.79
2178;BME280;1095;50.992;6.798;2023-03-01T06:04:13;102032.22;;;-4.51;99.71
2178;BME280;1095;50.992;6.798;2023-03-01T06:06:40;102027.16;;;-4.52;99.48
2178;BME280;1095;50.992;6.798;2023-03-01T06:09:07;102025.44;;;-4.52;99.80
2178;BME280;1095;50.992;6.798;2023-03-01T06:11:35;102024.56;;;-4.51;99.73
2178;BME280;1095;50.992;6.798;2023-03-01T06:14:02;102019.47;;;-4.51;100.00
2178;BME280;1095;50.992;6.798;2023-03-01T06:16:29;102025.47;;;-4.53;99.98
2178;BME280;1095;50.992;6.798;2023-03-01T06:18:55;102023.69;;;-4.50;99.94
2178;BME280;1095;50.992;6.798;2023-03-01T06:21:22;102027.13;;;-4.51;100.00
2178;BME280;1095;50.992;6.798;2023-03-01T06:23:50;102033.06;;;-4.50;100.00
2178;BME280;1095;50.992;6.798;2023-03-01T06:26:17;102029.72;;;-4.54;99.90
2178;BME280;1095;50.992;6.798;2023-03-01T06:28:43;102030.59;;;-4.55;100.00
2178;BME280;1095;50.992;6.798;2023-03-01T06:31:11;102030.56;;;-4.53;100.00
2178;BME280;1095;50.992;6.798;2023-03-01T06:33:37;102034.03;;;-4.57;100.00
2178;BME280;1095;50.992;6.798;2023-03-01T06:36:05;102031.47;;;-4.56;100.00
2178;BME280;1095;50.992;6.798;2023-03-01T06:38:31;102038.13;;;-4.47;100.00
2178;BME280;1095;50.992;6.798;2023-03-01T06:40:59;102037.19;;;-4.42;100.00
2178;BME280;1095;50.992;6.798;2023-03-01T06:43:26;102035.34;;;-4.33;100.00
2178;BME280;1095;50.992;6.798;2023-03-01T06:45:53;102035.25;;;-4.27;100.00
2178;BME280;1095;50.992;6.798;2023-03-01T06:48:19;102033.50;;;-4.25;100.00
2178;BME280;1095;50.992;6.798;2023-03-01T06:50:46;102031.63;;;-4.17;100.00
2178;BME280;1095;50.992;6.798;2023-03-01T06:53:12;102028.78;;;-4.02;100.00
2178;BME280;1095;50.992;6.798;2023-03-01T06:55:39;102025.19;;;-3.50;100.00
2178;BME280;1095;50.992;6.798;2023-03-01T06:58:08;102027.19;;;-2.87;99.83
2178;BME280;1095;50.992;6.798;2023-03-01T07:00:35;102019.25;;;-2.12;99.63
2178;BME280;1095;50.992;6.798;2023-03-01T07:03:02;102021.72;;;-1.20;98.10
2178;BME280;1095;50.992;6.798;2023-03-01T07:05:28;102015.28;;;-0.53;96.12
2178;BME280;1095;50.992;6.798;2023-03-01T07:07:55;102013.03;;;0.11;93.41
2178;BME280;1095;50.992;6.798;2023-03-01T07:10:22;102007.03;;;0.79;90.32
2178;BME280;1095;50.992;6.798;2023-03-01T07:12:49;101988.53;;;1.12;87.08
2178;BME280;1095;50.992;6.798;2023-03-01T07:15:17;101972.81;;;1.58;84.05
2178;BME280;1095;50.992;6.798;2023-03-01T07:17:43;101960.66;;;1.81;81.63
2178;BME280;1095;50.992;6.798;2023-03-01T07:20:12;101960.09;;;1.74;79.76
2178;BME280;1095;50.992;6.798;2023-03-01T07:22:40;101950.53;;;1.95;78.47
2178;BME280;1095;50.992;6.798;2023-03-01T07:25:08;101952.66;;;1.87;77.31
2178;BME280;1095;50.992;6.798;2023-03-01T07:27:34;101940.38;;;2.29;76.70
2178;BME280;1095;50.992;6.798;2023-03-01T07:30:01;101937.38;;;2.56;75.58
2178;BME280;1095;50.992;6.798;2023-03-01T07:32:29;101934.84;;;2.73;74.81
2178;BME280;1095;50.992;6.798;2023-03-01T07:34:56;101923.28;;;2.97;73.40
2178;BME280;1095;50.992;6.798;2023-03-01T07:37:22;101930.19;;;3.31;73.18
2178;BME280;1095;50.992;6.798;2023-03-01T07:39:49;101918.38;;;3.60;71.85
2178;BME280;1095;50.992;6.798;2023-03-01T07:42:15;101918.91;;;3.83;70.88
2178;BME280;1095;50.992;6.798;2023-03-01T07:44:42;101921.75;;;3.94;70.23
2178;BME280;1095;50.992;6.798;2023-03-01T07:47:09;101925.63;;;4.03;69.16
2178;BME280;1095;50.992;6.798;2023-03-01T07:49:37;101923.19;;;4.15;68.81
2178;BME280;1095;50.992;6.798;2023-03-01T07:52:04;101916.75;;;4.54;68.32
2178;BME280;1095;50.992;6.798;2023-03-01T07:54:30;101916.41;;;4.60;67.16
2178;BME280;1095;50.992;6.798;2023-03-01T07:56:57;101918.59;;;4.82;66.23
2178;BME280;1095;50.992;6.798;2023-03-01T07:59:24;101922.25;;;4.93;66.28
2178;BME280;1095;50.992;6.798;2023-03-01T08:05:53;101921.53;;;4.76;64.80
2178;BME280;1095;50.992;6.798;2023-03-01T08:08:19;101913.13;;;4.72;64.46
2178;BME280;1095;50.992;6.798;2023-03-01T08:10:46;101908.75;;;5.03;64.21
2178;BME280;1095;50.992;6.798;2023-03-01T08:13:13;101929.88;;;4.51;64.52
2178;BME280;1095;50.992;6.798;2023-03-01T08:15:39;101925.44;;;4.53;64.24
2178;BME280;1095;50.992;6.798;2023-03-01T08:18:06;101922.09;;;4.35;63.73
2178;BME280;1095;50.992;6.798;2023-03-01T08:20:32;101925.00;;;3.82;65.12
2178;BME280;1095;50.992;6.798;2023-03-01T08:23:00;101926.44;;;4.03;64.66
2178;BME280;1095;50.992;6.798;2023-03-01T08:25:27;101924.78;;;4.33;64.86
2178;BME280;1095;50.992;6.798;2023-03-01T08:27:59;101921.94;;;4.07;65.31
2178;BME280;1095;50.992;6.798;2023-03-01T08:34:00;101940.66;;;4.27;65.54
2178;BME280;1095;50.992;6.798;2023-03-01T08:36:29;101941.63;;;3.78;65.26
2178;BME280;1095;50.992;6.798;2023-03-01T08:38:58;101946.03;;;3.08;67.12
2178;BME280;1095;50.992;6.798;2023-03-01T08:41:25;101946.97;;;3.75;67.10
2178;BME280;1095;50.992;6.798;2023-03-01T08:43:55;101943.28;;;4.73;65.70
2178;BME280;1095;50.992;6.798;2023-03-01T08:47:07;101926.22;;;4.23;65.23
2178;BME280;1095;50.992;6.798;2023-03-01T08:53:41;101887.03;;;4.89;63.54
2178;BME280;1095;50.992;6.798;2023-03-01T08:56:48;101926.09;;;4.41;63.79
2178;BME280;1095;50.992;6.798;2023-03-01T08:59:41;101905.59;;;3.57;65.02
2178;BME280;1095;50.992;6.798;2023-03-01T09:02:43;101935.72;;;4.07;65.65
2178;BME280;1095;50.992;6.798;2023-03-01T09:05:23;101914.81;;;3.94;65.11
2178;BME280;1095;50.992;6.798;2023-03-01T09:07:50;101933.53;;;4.31;65.16
2178;BME280;1095;50.992;6.798;2023-03-01T09:10:17;101925.81;;;3.66;65.04
2178;BME280;1095;50.992;6.798;2023-03-01T09:12:45;101935.72;;;3.25;66.46
2178;BME280;1095;50.992;6.798;2023-03-01T09:15:12;101938.38;;;3.24;67.58
2178;BME280;1095;50.992;6.798;2023-03-01T09:17:38;101938.47;;;3.38;67.99
2178;BME280;1095;50.992;6.798;2023-03-01T09:20:06;101938.88;;;2.96;68.31
2178;BME280;1095;50.992;6.798;2023-03-01T09:22:33;101933.50;;;3.00;69.01
2178;BME280;1095;50.992;6.798;2023-03-01T09:25:00;101929.94;;;3.20;68.85
2178;BME280;1095;50.992;6.798;2023-03-01T09:27:26;101925.59;;;3.21;68.82
2178;BME280;1095;50.992;6.798;2023-03-01T09:29:54;101925.44;;;3.07;68.69
2178;BME280;1095;50.992;6.798;2023-03-01T09:32:22;101919.34;;;2.73;69.13
2178;BME280;1095;50.992;6.798;2023-03-01T09:34:49;101926.50;;;3.03;69.13
2178;BME280;1095;50.992;6.798;2023-03-01T09:37:30;101917.75;;;3.05;68.48
2178;BME280;1095;50.992;6.798;2023-03-01T09:39:57;101909.06;;;3.23;67.42
2178;BME280;1095;50.992;6.798;2023-03-01T09:42:24;101893.50;;;3.08;66.63
2178;BME280;1095;50.992;6.798;2023-03-01T09:44:57;101886.03;;;3.19;65.85
2178;BME280;1095;50.992;6.798;2023-03-01T09:47:26;101879.13;;;3.02;65.24
2178;BME280;1095;50.992;6.798;2023-03-01T09:50:02;101880.78;;;3.03;65.92
2178;BME280;1095;50.992;6.798;2023-03-01T09:52:38;101877.63;;;3.31;65.63
2178;BME280;1095;50.992;6.798;2023-03-01T09:55:10;101880.72;;;3.38;65.16
2178;BME280;1095;50.992;6.798;2023-03-01T09:57:43;101867.69;;;3.23;65.20
2178;BME280;1095;50.992;6.798;2023-03-01T10:00:33;101873.53;;;3.27;65.04
2178;BME280;1095;50.992;6.798;2023-03-01T10:03:12;101867.72;;;3.39;64.67
2178;BME280;1095;50.992;6.798;2023-03-01T10:05:48;101869.28;;;3.59;64.36
2178;BME280;1095;50.992;6.798;2023-03-01T10:08:34;101863.41;;;3.55;63.68
2178;BME280;1095;50.992;6.798;2023-03-01T10:11:04;101864.59;;;3.65;64.27
2178;BME280;1095;50.992;6.798;2023-03-01T10:13:37;101868.94;;;3.65;63.63
2178;BME280;1095;50.992;6.798;2023-03-01T10:16:15;101859.09;;;3.72;63.75
2178;BME280;1095;50.992;6.798;2023-03-01T10:18:45;101869.88;;;3.95;63.13
2178;BME280;1095;50.992;6.798;2023-03-01T10:21:15;101864.13;;;3.75;63.01
2178;BME280;1095;50.992;6.798;2023-03-01T10:23:44;101854.34;;;3.64;62.81
2178;BME280;1095;50.992;6.798;2023-03-01T10:26:36;101846.09;;;3.73;62.93
2178;BME280;1095;50.992;6.798;2023-03-01T10:29:10;101839.63;;;3.96;62.78
2178;BME280;1095;50.992;6.798;2023-03-01T10:31:41;101825.53;;;4.02;62.62
2178;BME280;1095;50.992;6.798;2023-03-01T10:34:15;101836.72;;;3.86;62.22
2178;BME280;1095;50.992;6.798;2023-03-01T10:36:44;101835.97;;;3.84;61.39
2178;BME280;1095;50.992;6.798;2023-03-01T10:39:14;101831.88;;;3.96;61.30
2178;BME280;1095;50.992;6.798;2023-03-01T10:41:56;101819.25;;;3.90;61.53
2178;BME280;1095;50.992;6.798;2023-03-01T10:44:42;101815.00;;;4.05;60.71
2178;BME280;1095;50.992;6.798;2023-03-01T10:47:16;101815.34;;;3.98;60.71
2178;BME280;1095;50.992;6.798;2023-03-01T10:49:54;101824.59;;;4.18;60.81
2178;BME280;1095;50.992;6.798;2023-03-01T10:52:23;101811.66;;;4.32;60.05
2178;BME280;1095;50.992;6.798;2023-03-01T10:54:53;101797.97;;;4.30;59.35
2178;BME280;1095;50.992;6.798;2023-03-01T10:57:37;101801.13;;;4.36;59.98
2178;BME280;1095;50.992;6.798;2023-03-01T11:00:18;101799.56;;;4.77;59.84
2178;BME280;1095;50.992;6.798;2023-03-01T11:02:49;101796.84;;;4.50;58.75
2178;BME280;1095;50.992;6.798;2023-03-01T11:05:20;101796.44;;;4.72;58.55
2178;BME280;1095;50.992;6.798;2023-03-01T11:07:51;101796.13;;;4.62;58.54
2178;BME280;1095;50.992;6.798;2023-03-01T11:10:20;101799.78;;;5.03;59.02
2178;BME280;1095;50.992;6.798;2023-03-01T11:12:46;101787.75;;;5.02;58.51
2178;BME280;1095;50.992;6.798;2023-03-01T11:15:23;101777.84;;;5.08;58.08
2178;BME280;1095;50.992;6.798;2023-03-01T11:17:53;101768.66;;;5.03;57.77
2178;BME280;1095;50.992;6.798;2023-03-01T11:20:25;101758.47;;;4.99;57.66
2178;BME280;1095;50.992;6.798;2023-03-01T11:22:54;101750.88;;;5.11;57.69
2178;BME280;1095;50.992;6.798;2023-03-01T11:25:25;101747.41;;;5.24;56.84
2178;BME280;1095;50.992;6.798;2023-03-01T11:27:53;101748.16;;;5.26;57.15
2178;BME280;1095;50.992;6.798;2023-03-01T11:30:21;101749.91;;;5.26;56.69
2178;BME280;1095;50.992;6.798;2023-03-01T11:32:58;101734.81;;;5.32;55.89
2178;BME280;1095;50.992;6.798;2023-03-01T11:35:28;101739.94;;;5.20;56.65
2178;BME280;1095;50.992;6.798;2023-03-01T11:38:04;101742.16;;;5.12;57.08
2178;BME280;1095;50.992;6.798;2023-03-01T11:40:43;101741.53;;;5.08;57.17
2178;BME280;1095;50.992;6.798;2023-03-01T11:43:16;101740.97;;;5.17;56.93
2178;BME280;1095;50.992;6.798;2023-03-01T11:45:55;101745.75;;;5.23;57.22
2178;BME280;1095;50.992;6.798;2023-03-01T11:48:44;101732.81;;;5.09;56.99
2178;BME280;1095;50.992;6.798;2023-03-01T11:51:19;101731.47;;;5.30;57.14
2178;BME280;1095;50.992;6.798;2023-03-01T11:54:01;101725.53;;;5.28;56.88
2178;BME280;1095;50.992;6.798;2023-03-01T11:56:34;101731.75;;;5.26;56.83
2178;BME280;1095;50.992;6.798;2023-03-01T11:59:13;101723.03;;;5.41;56.07
2178;BME280;1095;50.992;6.798;2023-03-01T12:01:52;101716.53;;;5.34;56.89
2178;BME280;1095;50.992;6.798;2023-03-01T12:04:57;101716.91;;;5.42;56.39
2178;BME280;1095;50.992;6.798;2023-03-01T12:07:35;101710.69;;;5.45;56.24
2178;BME280;1095;50.992;6.798;2023-03-01T12:10:21;101710.38;;;5.63;56.66
2178;BME280;1095;50.992;6.798;2023-03-01T12:16:09;101694.91;;;5.75;56.41
2178;BME280;1095;50.992;6.798;2023-03-01T12:18:53;101691.81;;;5.82;56.60
2178;BME280;1095;50.992;6.798;2023-03-01T12:21:27;101678.09;;;5.80;56.05
2178;BME280;1095;50.992;6.798;2023-03-01T12:27:09;101676.69;;;5.89;56.06
2178;BME280;1095;50.992;6.798;2023-03-01T12:29:44;101670.00;;;5.85;55.58
2178;BME280;1095;50.992;6.798;2023-03-01T12:32:27;101678.63;;;6.12;55.73
2178;BME280;1095;50.992;6.798;2023-03-01T12:35:19;101680.69;;;6.07;55.67
2178;BME280;1095;50.992;6.798;2023-03-01T12:37:56;101680.06;;;6.04;54.80
2178;BME280;1095;50.992;6.798;2023-03-01T12:40:35;101680.91;;;6.04;55.05
2178;BME280;1095;50.992;6.798;2023-03-01T12:43:14;101686.31;;;6.14;54.56
2178;BME280;1095;50.992;6.798;2023-03-01T12:46:06;101690.88;;;6.10;54.89
2178;BME280;1095;50.992;6.798;2023-03-01T12:48:40;101663.34;;;6.08;54.48
2178;BME280;1095;50.992;6.798;2023-03-01T12:51:11;101664.59;;;6.27;54.99
2178;BME280;1095;50.992;6.798;2023-03-01T12:53:46;101666.16;;;6.43;55.24
2178;BME280;1095;50.992;6.798;2023-03-01T12:56:17;101664.50;;;6.54;54.67
2178;BME280;1095;50.992;6.798;2023-03-01T12:58:51;101672.00;;;6.59;54.68
2178;BME280;1095;50.992;6.798;2023-03-01T13:01:27;101658.56;;;6.52;53.78
2178;BME280;1095;50.992;6.798;2023-03-01T13:04:06;101653.78;;;6.46;54.04
2178;BME280;1095;50.992;6.798;2023-03-01T13:06:42;101656.38;;;6.33;53.85
2178;BME280;1095;50.992;6.798;2023-03-01T13:09:14;101657.53;;;6.55;54.25
2178;BME280;1095;50.992;6.798;2023-03-01T13:11:44;101651.59;;;6.53;53.97
2178;BME280;1095;50.992;6.798;2023-03-01T13:14:45;101649.69;;;6.68;54.87
2178;BME280;1095;50.992;6.798;2023-03-01T13:17:41;101651.47;;;6.67;55.68
2178;BME280;1095;50.992;6.798;2023-03-01T13:20:13;101652.03;;;6.47;55.60
2178;BME280;1095;50.992;6.798;2023-03-01T13:22:41;101639.34;;;6.55;55.69
2178;BME280;1095;50.992;6.798;2023-03-01T13:25:17;101645.88;;;6.60;55.96
2178;BME280;1095;50.992;6.798;2023-03-01T13:27:45;101650.94;;;6.62;55.65
2178;BME280;1095;50.992;6.798;2023-03-01T13:30:39;101652.84;;;6.60;55.72
2178;BME280;1095;50.992;6.798;2023-03-01T13:33:39;101635.75;;;6.81;55.85
2178;BME280;1095;50.992;6.798;2023-03-01T13:36:07;101644.59;;;6.79;56.02
2178;BME280;1095;50.992;6.798;2023-03-01T13:38:37;101633.34;;;6.78;56.13
2178;BME280;1095;50.992;6.798;2023-03-01T13:41:07;101644.06;;;6.74;56.38
2178;BME280;1095;50.992;6.798;2023-03-01T13:43:41;101635.53;;;6.72;56.66
2178;BME280;1095;50.992;6.798;2023-03-01T13:46:15;101641.72;;;6.58;56.47
2178;BME280;1095;50.992;6.798;2023-03-01T13:48:45;101626.31;;;6.55;56.70
2178;BME280;1095;50.992;6.798;2023-03-01T13:51:12;101643.50;;;6.45;56.73
2178;BME280;1095;50.992;6.798;2023-03-01T13:53:42;101625.19;;;6.46;57.09